sensor_id;sensor_type;location;lat;lon;timestamp;P1;durP1;ratioP1;P2;durP2;ratioP2
45488;SDS011;31236;55.026;61.042;2023-07-13T00:01:35;10.00;;;6.60;;
45488;SDS011;31236;55.026;61.042;2023-07-13T00:04:05;13.00;;;7.70;;
45488;SDS011;31236;55.026;61.042;2023-07-13T00:06:35;9.15;;;6.33;;
45488;SDS011;31236;55.026;61.042;2023-07-13T00:09:05;13.72;;;6.15;;
45488;SDS011;31236;55.026;61.042;2023-07-13T00:11:36;10.23;;;4.97;;
45488;SDS011;31236;55.026;61.042;2023-07-13T00:14:06;9.88;;;5.30;;
45488;SDS011;31236;55.026;61.042;2023-07-13T00:16:37;11.22;;;5.35;;
45488;SDS011;31236;55.026;61.042;2023-07-13T00:19:10;11.18;;;5.25;;
45488;SDS011;31236;55.026;61.042;2023-07-13T00:21:41;11.53;;;4.97;;
45488;SDS011;31236;55.026;61.042;2023-07-13T00:24:11;7.65;;;4.47;;
45488;SDS011;31236;55.026;61.042;2023-07-13T00:26:44;7.78;;;4.58;;
45488;SDS011;31236;55.026;61.042;2023-07-13T00:29:14;6.92;;;3.80;;
45488;SDS011;31236;55.026;61.042;2023-07-13T00:31:44;10.43;;;4.00;;
45488;SDS011;31236;55.026;61.042;2023-07-13T00:34:14;7.37;;;3.95;;
45488;SDS011;31236;55.026;61.042;2023-07-13T00:36:43;9.15;;;3.75;;
45488;SDS011;31236;55.026;61.042;2023-07-13T00:39:13;6.92;;;3.75;;
45488;SDS011;31236;55.026;61.042;2023-07-13T00:41:43;12.05;;;4.22;;
45488;SDS011;31236;55.026;61.042;2023-07-13T00:46:44;13.58;;;3.90;;
45488;SDS011;31236;55.026;61.042;2023-07-13T00:49:15;7.67;;;3.65;;
45488;SDS011;31236;55.026;61.042;2023-07-13T00:54:39;6.83;;;3.85;;
45488;SDS011;31236;55.026;61.042;2023-07-13T00:57:11;7.70;;;3.75;;
45488;SDS011;31236;55.026;61.042;2023-07-13T00:59:43;9.63;;;3.58;;
45488;SDS011;31236;55.026;61.042;2023-07-13T01:02:15;7.30;;;3.80;;
45488;SDS011;31236;55.026;61.042;2023-07-13T01:04:45;10.45;;;3.70;;
45488;SDS011;31236;55.026;61.042;2023-07-13T01:07:15;8.50;;;3.37;;
45488;SDS011;31236;55.026;61.042;2023-07-13T01:09:46;12.00;;;3.60;;
45488;SDS011;31236;55.026;61.042;2023-07-13T01:12:16;10.65;;;4.25;;
45488;SDS011;31236;55.026;61.042;2023-07-13T01:14:46;10.32;;;4.28;;
45488;SDS011;31236;55.026;61.042;2023-07-13T01:17:16;6.90;;;3.27;;
45488;SDS011;31236;55.026;61.042;2023-07-13T01:19:46;9.78;;;3.10;;
45488;SDS011;31236;55.026;61.042;2023-07-13T01:22:17;7.60;;;3.50;;
45488;SDS011;31236;55.026;61.042;2023-07-13T01:24:49;18.77;;;3.95;;
45488;SDS011;31236;55.026;61.042;2023-07-13T01:30:08;4.25;;;2.77;;
45488;SDS011;31236;55.026;61.042;2023-07-13T01:32:38;9.38;;;3.05;;
45488;SDS011;31236;55.026;61.042;2023-07-13T01:35:08;8.68;;;2.70;;
45488;SDS011;31236;55.026;61.042;2023-07-13T01:37:38;7.17;;;2.62;;
45488;SDS011;31236;55.026;61.042;2023-07-13T01:40:08;6.85;;;2.55;;
45488;SDS011;31236;55.026;61.042;2023-07-13T01:42:39;8.43;;;2.42;;
45488;SDS011;31236;55.026;61.042;2023-07-13T01:45:10;6.55;;;2.47;;
45488;SDS011;31236;55.026;61.042;2023-07-13T01:47:40;4.12;;;2.42;;
45488;SDS011;31236;55.026;61.042;2023-07-13T01:50:10;9.08;;;2.17;;
45488;SDS011;31236;55.026;61.042;2023-07-13T01:52:40;8.18;;;2.10;;
45488;SDS011;31236;55.026;61.042;2023-07-13T01:55:10;15.30;;;2.40;;
45488;SDS011;31236;55.026;61.042;2023-07-13T01:57:40;7.80;;;2.20;;
45488;SDS011;31236;55.026;61.042;2023-07-13T02:00:10;7.28;;;2.05;;
45488;SDS011;31236;55.026;61.042;2023-07-13T02:02:41;3.50;;;2.10;;
45488;SDS011;31236;55.026;61.042;2023-07-13T02:05:11;7.15;;;1.80;;
45488;SDS011;31236;55.026;61.042;2023-07-13T02:07:41;9.33;;;1.90;;
45488;SDS011;31236;55.026;61.042;2023-07-13T02:10:11;10.55;;;2.30;;
45488;SDS011;31236;55.026;61.042;2023-07-13T02:12:42;5.20;;;2.20;;
45488;SDS011;31236;55.026;61.042;2023-07-13T02:15:11;7.87;;;1.70;;
45488;SDS011;31236;55.026;61.042;2023-07-13T02:17:41;5.83;;;1.90;;
45488;SDS011;31236;55.026;61.042;2023-07-13T02:20:11;4.35;;;1.70;;
45488;SDS011;31236;55.026;61.042;2023-07-13T02:22:41;5.33;;;1.60;;
45488;SDS011;31236;55.026;61.042;2023-07-13T02:25:10;8.83;;;1.60;;
45488;SDS011;31236;55.026;61.042;2023-07-13T02:27:40;6.80;;;1.60;;
45488;SDS011;31236;55.026;61.042;2023-07-13T02:30:10;7.28;;;1.80;;
45488;SDS011;31236;55.026;61.042;2023-07-13T02:32:40;4.03;;;1.45;;
45488;SDS011;31236;55.026;61.042;2023-07-13T02:35:10;5.25;;;1.50;;
45488;SDS011;31236;55.026;61.042;2023-07-13T02:37:40;9.28;;;2.17;;
45488;SDS011;31236;55.026;61.042;2023-07-13T02:40:10;7.87;;;1.82;;
45488;SDS011;31236;55.026;61.042;2023-07-13T02:42:40;7.00;;;1.47;;
45488;SDS011;31236;55.026;61.042;2023-07-13T02:45:10;7.40;;;1.50;;
45488;SDS011;31236;55.026;61.042;2023-07-13T02:47:41;7.17;;;1.62;;
45488;SDS011;31236;55.026;61.042;2023-07-13T02:50:11;4.62;;;1.57;;
45488;SDS011;31236;55.026;61.042;2023-07-13T02:52:40;2.80;;;1.30;;
45488;SDS011;31236;55.026;61.042;2023-07-13T02:55:10;2.52;;;1.10;;
45488;SDS011;31236;55.026;61.042;2023-07-13T02:57:40;6.00;;;1.40;;
45488;SDS011;31236;55.026;61.042;2023-07-13T03:00:10;2.65;;;1.20;;
45488;SDS011;31236;55.026;61.042;2023-07-13T03:02:42;4.80;;;1.40;;
45488;SDS011;31236;55.026;61.042;2023-07-13T03:05:12;2.27;;;1.15;;
45488;SDS011;31236;55.026;61.042;2023-07-13T03:07:42;4.12;;;1.20;;
45488;SDS011;31236;55.026;61.042;2023-07-13T03:10:13;4.30;;;1.55;;
45488;SDS011;31236;55.026;61.042;2023-07-13T03:12:43;2.75;;;1.30;;
45488;SDS011;31236;55.026;61.042;2023-07-13T03:15:13;7.10;;;1.40;;
45488;SDS011;31236;55.026;61.042;2023-07-13T03:17:43;2.98;;;1.27;;
45488;SDS011;31236;55.026;61.042;2023-07-13T03:20:13;7.75;;;1.52;;
45488;SDS011;31236;55.026;61.042;2023-07-13T03:22:43;2.95;;;1.25;;
45488;SDS011;31236;55.026;61.042;2023-07-13T03:25:13;5.45;;;1.35;;
45488;SDS011;31236;55.026;61.042;2023-07-13T03:27:43;4.67;;;1.42;;
45488;SDS011;31236;55.026;61.042;2023-07-13T03:30:13;4.28;;;1.55;;
45488;SDS011;31236;55.026;61.042;2023-07-13T03:32:43;5.75;;;1.70;;
45488;SDS011;31236;55.026;61.042;2023-07-13T03:35:12;4.22;;;1.37;;
45488;SDS011;31236;55.026;61.042;2023-07-13T03:37:44;5.22;;;1.50;;
45488;SDS011;31236;55.026;61.042;2023-07-13T03:40:14;6.65;;;1.65;;
45488;SDS011;31236;55.026;61.042;2023-07-13T03:42:44;5.03;;;1.50;;
45488;SDS011;31236;55.026;61.042;2023-07-13T03:45:14;4.80;;;1.50;;
45488;SDS011;31236;55.026;61.042;2023-07-13T03:47:43;7.95;;;1.47;;
45488;SDS011;31236;55.026;61.042;2023-07-13T03:50:13;4.33;;;1.60;;
45488;SDS011;31236;55.026;61.042;2023-07-13T03:52:43;2.20;;;1.45;;
45488;SDS011;31236;55.026;61.042;2023-07-13T03:55:13;4.53;;;1.60;;
45488;SDS011;31236;55.026;61.042;2023-07-13T03:57:43;2.12;;;1.47;;
45488;SDS011;31236;55.026;61.042;2023-07-13T04:00:14;3.00;;;1.57;;
45488;SDS011;31236;55.026;61.042;2023-07-13T04:02:44;1.60;;;1.30;;
45488;SDS011;31236;55.026;61.042;2023-07-13T04:05:15;2.50;;;1.50;;
45488;SDS011;31236;55.026;61.042;2023-07-13T04:07:45;2.87;;;1.45;;
45488;SDS011;31236;55.026;61.042;2023-07-13T04:10:15;2.10;;;1.10;;
45488;SDS011;31236;55.026;61.042;2023-07-13T04:12:44;2.17;;;1.45;;
45488;SDS011;31236;55.026;61.042;2023-07-13T04:15:14;2.95;;;1.47;;
45488;SDS011;31236;55.026;61.042;2023-07-13T04:17:44;2.87;;;1.70;;
45488;SDS011;31236;55.026;61.042;2023-07-13T04:20:14;5.37;;;1.60;;
45488;SDS011;31236;55.026;61.042;2023-07-13T04:22:45;4.43;;;1.53;;
45488;SDS011;31236;55.026;61.042;2023-07-13T04:25:15;6.42;;;1.82;;
45488;SDS011;31236;55.026;61.042;2023-07-13T04:27:46;3.70;;;1.70;;
45488;SDS011;31236;55.026;61.042;2023-07-13T04:30:16;3.58;;;1.70;;
45488;SDS011;31236;55.026;61.042;2023-07-13T04:32:46;5.90;;;1.42;;
45488;SDS011;31236;55.026;61.042;2023-07-13T04:35:15;4.60;;;1.52;;
45488;SDS011;31236;55.026;61.042;2023-07-13T04:37:47;5.95;;;1.55;;
45488;SDS011;31236;55.026;61.042;2023-07-13T04:40:18;6.28;;;1.77;;
45488;SDS011;31236;55.026;61.042;2023-07-13T04:42:49;2.50;;;1.50;;
45488;SDS011;31236;55.026;61.042;2023-07-13T04:45:18;5.28;;;1.60;;
45488;SDS011;31236;55.026;61.042;2023-07-13T04:47:50;3.70;;;1.85;;
45488;SDS011;31236;55.026;61.042;2023-07-13T04:50:19;4.92;;;1.62;;
45488;SDS011;31236;55.026;61.042;2023-07-13T04:52:50;3.45;;;1.47;;
45488;SDS011;31236;55.026;61.042;2023-07-13T04:55:19;1.85;;;1.40;;
45488;SDS011;31236;55.026;61.042;2023-07-13T04:57:50;5.45;;;1.70;;
45488;SDS011;31236;55.026;61.042;2023-07-13T05:00:20;5.33;;;1.60;;
45488;SDS011;31236;55.026;61.042;2023-07-13T05:02:50;5.28;;;1.92;;
45488;SDS011;31236;55.026;61.042;2023-07-13T05:05:19;4.95;;;1.85;;
45488;SDS011;31236;55.026;61.042;2023-07-13T05:07:51;2.92;;;1.60;;
45488;SDS011;31236;55.026;61.042;2023-07-13T05:10:21;6.25;;;1.70;;
45488;SDS011;31236;55.026;61.042;2023-07-13T05:12:52;6.12;;;1.45;;
45488;SDS011;31236;55.026;61.042;2023-07-13T05:15:22;3.00;;;1.50;;
45488;SDS011;31236;55.026;61.042;2023-07-13T05:17:52;4.60;;;1.62;;
45488;SDS011;31236;55.026;61.042;2023-07-13T05:20:22;4.30;;;1.60;;
45488;SDS011;31236;55.026;61.042;2023-07-13T05:22:51;3.85;;;1.52;;
45488;SDS011;31236;55.026;61.042;2023-07-13T05:25:21;3.25;;;1.60;;
45488;SDS011;31236;55.026;61.042;2023-07-13T05:27:51;2.80;;;1.35;;
45488;SDS011;31236;55.026;61.042;2023-07-13T05:30:20;3.80;;;1.52;;
45488;SDS011;31236;55.026;61.042;2023-07-13T05:32:50;4.12;;;1.55;;
45488;SDS011;31236;55.026;61.042;2023-07-13T05:35:20;2.55;;;1.60;;
45488;SDS011;31236;55.026;61.042;2023-07-13T05:37:49;5.97;;;1.57;;
45488;SDS011;31236;55.026;61.042;2023-07-13T05:40:19;7.90;;;1.60;;
45488;SDS011;31236;55.026;61.042;2023-07-13T05:42:49;2.45;;;1.50;;
45488;SDS011;31236;55.026;61.042;2023-07-13T05:45:21;3.22;;;1.90;;
45488;SDS011;31236;55.026;61.042;2023-07-13T05:47:52;1.82;;;1.40;;
45488;SDS011;31236;55.026;61.042;2023-07-13T05:50:22;16.25;;;2.05;;
45488;SDS011;31236;55.026;61.042;2023-07-13T05:52:51;3.62;;;1.50;;
45488;SDS011;31236;55.026;61.042;2023-07-13T05:55:22;1.98;;;1.50;;
45488;SDS011;31236;55.026;61.042;2023-07-13T05:57:52;4.58;;;1.70;;
45488;SDS011;31236;55.026;61.042;2023-07-13T06:00:24;20.25;;;2.60;;
45488;SDS011;31236;55.026;61.042;2023-07-13T06:02:55;3.17;;;1.37;;
45488;SDS011;31236;55.026;61.042;2023-07-13T06:05:25;2.85;;;1.70;;
45488;SDS011;31236;55.026;61.042;2023-07-13T06:07:55;5.42;;;1.95;;
45488;SDS011;31236;55.026;61.042;2023-07-13T06:10:25;7.53;;;1.87;;
45488;SDS011;31236;55.026;61.042;2023-07-13T06:12:54;3.65;;;1.80;;
45488;SDS011;31236;55.026;61.042;2023-07-13T06:15:24;2.67;;;1.45;;
45488;SDS011;31236;55.026;61.042;2023-07-13T06:17:54;3.50;;;1.70;;
45488;SDS011;31236;55.026;61.042;2023-07-13T06:20:24;6.55;;;2.10;;
45488;SDS011;31236;55.026;61.042;2023-07-13T06:22:53;4.45;;;1.65;;
45488;SDS011;31236;55.026;61.042;2023-07-13T06:25:23;5.05;;;1.72;;
45488;SDS011;31236;55.026;61.042;2023-07-13T06:27:53;4.15;;;1.70;;
45488;SDS011;31236;55.026;61.042;2023-07-13T06:30:22;4.40;;;1.60;;
45488;SDS011;31236;55.026;61.042;2023-07-13T06:32:54;5.92;;;2.05;;
45488;SDS011;31236;55.026;61.042;2023-07-13T06:35:23;3.08;;;1.90;;
45488;SDS011;31236;55.026;61.042;2023-07-13T06:37:53;6.28;;;1.70;;
45488;SDS011;31236;55.026;61.042;2023-07-13T06:40:23;2.87;;;1.82;;
45488;SDS011;31236;55.026;61.042;2023-07-13T06:42:55;6.25;;;1.85;;
45488;SDS011;31236;55.026;61.042;2023-07-13T06:45:24;3.22;;;1.60;;
45488;SDS011;31236;55.026;61.042;2023-07-13T06:47:58;3.00;;;1.62;;
45488;SDS011;31236;55.026;61.042;2023-07-13T06:50:28;2.37;;;1.70;;
45488;SDS011;31236;55.026;61.042;2023-07-13T06:52:58;2.33;;;1.65;;
45488;SDS011;31236;55.026;61.042;2023-07-13T06:55:27;3.30;;;1.50;;
45488;SDS011;31236;55.026;61.042;2023-07-13T06:57:57;4.70;;;2.08;;
45488;SDS011;31236;55.026;61.042;2023-07-13T07:00:27;2.30;;;1.62;;
45488;SDS011;31236;55.026;61.042;2023-07-13T07:02:57;5.70;;;1.77;;
45488;SDS011;31236;55.026;61.042;2023-07-13T07:05:27;7.05;;;2.10;;
45488;SDS011;31236;55.026;61.042;2023-07-13T07:07:57;2.27;;;1.50;;
45488;SDS011;31236;55.026;61.042;2023-07-13T07:10:28;3.83;;;1.60;;
45488;SDS011;31236;55.026;61.042;2023-07-13T07:12:58;5.53;;;3.00;;
45488;SDS011;31236;55.026;61.042;2023-07-13T07:15:29;8.98;;;3.90;;
45488;SDS011;31236;55.026;61.042;2023-07-13T07:17:59;3.90;;;1.90;;
45488;SDS011;31236;55.026;61.042;2023-07-13T07:20:29;5.45;;;2.50;;
45488;SDS011;31236;55.026;61.042;2023-07-13T07:22:59;3.22;;;2.10;;
45488;SDS011;31236;55.026;61.042;2023-07-13T07:25:29;3.25;;;2.02;;
45488;SDS011;31236;55.026;61.042;2023-07-13T07:28:00;2.52;;;1.60;;
45488;SDS011;31236;55.026;61.042;2023-07-13T07:30:30;3.20;;;1.85;;
45488;SDS011;31236;55.026;61.042;2023-07-13T07:32:59;7.12;;;2.30;;
45488;SDS011;31236;55.026;61.042;2023-07-13T07:35:29;5.55;;;2.05;;
45488;SDS011;31236;55.026;61.042;2023-07-13T07:37:59;9.80;;;1.87;;
45488;SDS011;31236;55.026;61.042;2023-07-13T07:40:29;6.12;;;2.20;;
45488;SDS011;31236;55.026;61.042;2023-07-13T07:42:59;3.67;;;2.02;;
45488;SDS011;31236;55.026;61.042;2023-07-13T07:45:28;4.30;;;2.00;;
45488;SDS011;31236;55.026;61.042;2023-07-13T07:47:58;5.03;;;2.12;;
45488;SDS011;31236;55.026;61.042;2023-07-13T07:50:28;5.40;;;2.22;;
45488;SDS011;31236;55.026;61.042;2023-07-13T07:52:58;2.45;;;1.90;;
45488;SDS011;31236;55.026;61.042;2023-07-13T07:55:28;6.87;;;2.00;;
45488;SDS011;31236;55.026;61.042;2023-07-13T07:57:58;4.03;;;1.95;;
45488;SDS011;31236;55.026;61.042;2023-07-13T08:00:27;4.62;;;2.10;;
45488;SDS011;31236;55.026;61.042;2023-07-13T08:02:58;5.17;;;1.92;;
45488;SDS011;31236;55.026;61.042;2023-07-13T08:05:28;5.15;;;2.10;;
45488;SDS011;31236;55.026;61.042;2023-07-13T08:07:58;2.87;;;1.90;;
45488;SDS011;31236;55.026;61.042;2023-07-13T08:10:28;4.08;;;2.00;;
45488;SDS011;31236;55.026;61.042;2023-07-13T08:12:57;5.37;;;1.90;;
45488;SDS011;31236;55.026;61.042;2023-07-13T08:15:27;5.00;;;2.05;;
45488;SDS011;31236;55.026;61.042;2023-07-13T08:17:57;4.15;;;2.10;;
45488;SDS011;31236;55.026;61.042;2023-07-13T08:20:27;4.00;;;1.80;;
45488;SDS011;31236;55.026;61.042;2023-07-13T08:22:56;3.27;;;1.90;;
45488;SDS011;31236;55.026;61.042;2023-07-13T08:25:26;3.90;;;2.00;;
45488;SDS011;31236;55.026;61.042;2023-07-13T08:27:56;5.03;;;1.87;;
45488;SDS011;31236;55.026;61.042;2023-07-13T08:30:25;4.08;;;2.00;;
45488;SDS011;31236;55.026;61.042;2023-07-13T08:32:55;4.67;;;2.10;;
45488;SDS011;31236;55.026;61.042;2023-07-13T08:35:25;4.65;;;2.12;;
45488;SDS011;31236;55.026;61.042;2023-07-13T08:37:55;6.00;;;1.98;;
45488;SDS011;31236;55.026;61.042;2023-07-13T08:40:27;3.27;;;1.90;;
45488;SDS011;31236;55.026;61.042;2023-07-13T08:42:58;8.20;;;2.00;;
45488;SDS011;31236;55.026;61.042;2023-07-13T08:54:37;3.02;;;1.70;;
45488;SDS011;31236;55.026;61.042;2023-07-13T08:57:29;4.15;;;1.70;;
45488;SDS011;31236;55.026;61.042;2023-07-13T08:59:59;5.87;;;1.95;;
45488;SDS011;31236;55.026;61.042;2023-07-13T09:19:37;3.98;;;1.80;;
45488;SDS011;31236;55.026;61.042;2023-07-13T09:22:11;1.90;;;1.70;;
45488;SDS011;31236;55.026;61.042;2023-07-13T09:30:25;4.15;;;1.47;;
45488;SDS011;31236;55.026;61.042;2023-07-13T09:32:56;7.10;;;1.57;;
45488;SDS011;31236;55.026;61.042;2023-07-13T09:35:31;6.67;;;1.70;;
45488;SDS011;31236;55.026;61.042;2023-07-13T09:37:58;3.33;;;1.52;;
45488;SDS011;31236;55.026;61.042;2023-07-13T09:43:20;4.12;;;1.45;;
45488;SDS011;31236;55.026;61.042;2023-07-13T09:45:50;2.87;;;1.50;;
45488;SDS011;31236;55.026;61.042;2023-07-13T09:48:20;4.45;;;1.37;;
45488;SDS011;31236;55.026;61.042;2023-07-13T09:50:54;2.45;;;1.15;;
45488;SDS011;31236;55.026;61.042;2023-07-13T09:53:42;4.25;;;1.40;;
45488;SDS011;31236;55.026;61.042;2023-07-13T09:59:01;4.47;;;1.37;;
45488;SDS011;31236;55.026;61.042;2023-07-13T10:01:31;4.08;;;1.40;;
45488;SDS011;31236;55.026;61.042;2023-07-13T10:04:10;9.45;;;1.75;;
45488;SDS011;31236;55.026;61.042;2023-07-13T10:07:04;5.62;;;1.20;;
45488;SDS011;31236;55.026;61.042;2023-07-13T10:09:44;2.33;;;1.20;;
45488;SDS011;31236;55.026;61.042;2023-07-13T10:12:14;5.25;;;1.30;;
45488;SDS011;31236;55.026;61.042;2023-07-13T10:14:44;4.17;;;1.50;;
45488;SDS011;31236;55.026;61.042;2023-07-13T10:17:16;1.15;;;1.00;;
45488;SDS011;31236;55.026;61.042;2023-07-13T10:19:48;2.33;;;1.20;;
45488;SDS011;31236;55.026;61.042;2023-07-13T10:25:28;4.08;;;1.40;;
45488;SDS011;31236;55.026;61.042;2023-07-13T10:31:10;1.60;;;1.20;;
45488;SDS011;31236;55.026;61.042;2023-07-13T10:33:40;3.30;;;1.10;;
45488;SDS011;31236;55.026;61.042;2023-07-13T10:39:19;3.12;;;1.07;;
45488;SDS011;31236;55.026;61.042;2023-07-13T10:41:52;1.75;;;1.00;;
45488;SDS011;31236;55.026;61.042;2023-07-13T10:44:24;1.10;;;0.90;;
45488;SDS011;31236;55.026;61.042;2023-07-13T10:46:57;1.60;;;1.00;;
45488;SDS011;31236;55.026;61.042;2023-07-13T10:49:46;3.33;;;1.07;;
45488;SDS011;31236;55.026;61.042;2023-07-13T10:58:19;4.20;;;1.50;;
45488;SDS011;31236;55.026;61.042;2023-07-13T11:06:48;3.62;;;1.75;;
45488;SDS011;31236;55.026;61.042;2023-07-13T11:18:28;5.55;;;1.60;;
45488;SDS011;31236;55.026;61.042;2023-07-13T11:21:30;3.20;;;1.45;;
45488;SDS011;31236;55.026;61.042;2023-07-13T11:35:12;1.65;;;1.20;;
45488;SDS011;31236;55.026;61.042;2023-07-13T11:37:59;3.98;;;1.60;;
45488;SDS011;31236;55.026;61.042;2023-07-13T11:40:29;4.12;;;1.70;;
45488;SDS011;31236;55.026;61.042;2023-07-13T11:43:00;9.77;;;2.30;;
45488;SDS011;31236;55.026;61.042;2023-07-13T11:45:34;4.28;;;2.10;;
45488;SDS011;31236;55.026;61.042;2023-07-13T11:48:04;4.70;;;1.47;;
45488;SDS011;31236;55.026;61.042;2023-07-13T11:50:33;5.97;;;1.92;;
45488;SDS011;31236;55.026;61.042;2023-07-13T11:53:03;3.22;;;1.90;;
45488;SDS011;31236;55.026;61.042;2023-07-13T11:55:33;3.35;;;1.67;;
45488;SDS011;31236;55.026;61.042;2023-07-13T11:58:07;3.87;;;1.65;;
45488;SDS011;31236;55.026;61.042;2023-07-13T12:00:40;7.65;;;1.87;;
45488;SDS011;31236;55.026;61.042;2023-07-13T12:03:11;3.60;;;1.85;;
45488;SDS011;31236;55.026;61.042;2023-07-13T12:05:54;3.47;;;1.70;;
45488;SDS011;31236;55.026;61.042;2023-07-13T12:08:15;3.70;;;1.82;;
45488;SDS011;31236;55.026;61.042;2023-07-13T12:10:45;2.33;;;1.70;;
45488;SDS011;31236;55.026;61.042;2023-07-13T12:13:15;5.65;;;1.50;;
45488;SDS011;31236;55.026;61.042;2023-07-13T12:15:45;5.95;;;1.77;;
45488;SDS011;31236;55.026;61.042;2023-07-13T12:21:10;9.15;;;2.00;;
45488;SDS011;31236;55.026;61.042;2023-07-13T12:23:42;7.00;;;1.95;;
45488;SDS011;31236;55.026;61.042;2023-07-13T12:34:22;7.55;;;2.00;;
45488;SDS011;31236;55.026;61.042;2023-07-13T12:47:57;4.25;;;2.00;;
45488;SDS011;31236;55.026;61.042;2023-07-13T12:50:47;4.65;;;1.80;;
45488;SDS011;31236;55.026;61.042;2023-07-13T12:56:11;4.60;;;1.60;;
45488;SDS011;31236;55.026;61.042;2023-07-13T12:58:41;6.33;;;1.80;;
45488;SDS011;31236;55.026;61.042;2023-07-13T13:04:22;19.45;;;3.10;;
45488;SDS011;31236;55.026;61.042;2023-07-13T13:07:24;10.00;;;2.00;;
45488;SDS011;31236;55.026;61.042;2023-07-13T13:09:44;3.60;;;1.65;;
45488;SDS011;31236;55.026;61.042;2023-07-13T13:12:14;8.23;;;1.80;;
45488;SDS011;31236;55.026;61.042;2023-07-13T13:14:44;6.45;;;1.70;;
45488;SDS011;31236;55.026;61.042;2023-07-13T13:22:53;6.58;;;1.50;;
45488;SDS011;31236;55.026;61.042;2023-07-13T13:25:23;5.25;;;1.95;;
45488;SDS011;31236;55.026;61.042;2023-07-13T13:27:53;6.22;;;1.70;;
45488;SDS011;31236;55.026;61.042;2023-07-13T13:30:23;5.62;;;1.70;;
45488;SDS011;31236;55.026;61.042;2023-07-13T13:32:53;4.53;;;1.90;;
45488;SDS011;31236;55.026;61.042;2023-07-13T13:38:13;4.58;;;1.80;;
45488;SDS011;31236;55.026;61.042;2023-07-13T13:40:44;4.35;;;1.57;;
45488;SDS011;31236;55.026;61.042;2023-07-13T13:46:05;8.70;;;2.10;;
45488;SDS011;31236;55.026;61.042;2023-07-13T13:48:55;9.45;;;2.15;;
45488;SDS011;31236;55.026;61.042;2023-07-13T13:51:25;4.90;;;1.70;;
45488;SDS011;31236;55.026;61.042;2023-07-13T13:53:56;4.62;;;1.90;;
45488;SDS011;31236;55.026;61.042;2023-07-13T13:56:27;5.22;;;1.60;;
45488;SDS011;31236;55.026;61.042;2023-07-13T13:58:56;1.55;;;1.40;;
45488;SDS011;31236;55.026;61.042;2023-07-13T14:01:26;5.65;;;1.70;;
45488;SDS011;31236;55.026;61.042;2023-07-13T14:03:57;2.85;;;1.60;;
45488;SDS011;31236;55.026;61.042;2023-07-13T14:06:27;3.98;;;2.27;;
45488;SDS011;31236;55.026;61.042;2023-07-13T14:08:57;30.43;;;16.35;;
45488;SDS011;31236;55.026;61.042;2023-07-13T14:11:29;8.98;;;4.90;;
45488;SDS011;31236;55.026;61.042;2023-07-13T14:14:00;14.30;;;7.15;;
45488;SDS011;31236;55.026;61.042;2023-07-13T14:16:31;8.40;;;2.33;;
45488;SDS011;31236;55.026;61.042;2023-07-13T14:19:03;36.40;;;22.65;;
45488;SDS011;31236;55.026;61.042;2023-07-13T14:21:33;11.90;;;2.62;;
45488;SDS011;31236;55.026;61.042;2023-07-13T14:24:03;5.80;;;1.85;;
45488;SDS011;31236;55.026;61.042;2023-07-13T14:26:35;6.95;;;1.90;;
45488;SDS011;31236;55.026;61.042;2023-07-13T14:29:23;5.30;;;2.12;;
45488;SDS011;31236;55.026;61.042;2023-07-13T14:31:53;3.45;;;1.70;;
45488;SDS011;31236;55.026;61.042;2023-07-13T14:34:22;6.20;;;1.90;;
45488;SDS011;31236;55.026;61.042;2023-07-13T14:36:52;10.48;;;2.33;;
45488;SDS011;31236;55.026;61.042;2023-07-13T14:39:23;10.98;;;2.65;;
45488;SDS011;31236;55.026;61.042;2023-07-13T14:41:54;7.97;;;1.87;;
45488;SDS011;31236;55.026;61.042;2023-07-13T14:44:26;6.72;;;3.17;;
45488;SDS011;31236;55.026;61.042;2023-07-13T14:47:01;20.92;;;8.83;;
45488;SDS011;31236;55.026;61.042;2023-07-13T14:49:34;5.80;;;2.90;;
45488;SDS011;31236;55.026;61.042;2023-07-13T14:52:24;35.10;;;13.68;;
45488;SDS011;31236;55.026;61.042;2023-07-13T14:54:54;24.43;;;7.55;;
45488;SDS011;31236;55.026;61.042;2023-07-13T14:57:24;24.82;;;7.33;;
45488;SDS011;31236;55.026;61.042;2023-07-13T14:59:53;30.00;;;10.32;;
45488;SDS011;31236;55.026;61.042;2023-07-13T15:08:03;33.78;;;17.65;;
45488;SDS011;31236;55.026;61.042;2023-07-13T15:10:33;22.02;;;11.03;;
45488;SDS011;31236;55.026;61.042;2023-07-13T15:15:52;11.88;;;2.77;;
45488;SDS011;31236;55.026;61.042;2023-07-13T15:18:23;9.90;;;2.30;;
45488;SDS011;31236;55.026;61.042;2023-07-13T15:20:54;13.62;;;3.50;;
45488;SDS011;31236;55.026;61.042;2023-07-13T15:23:25;9.28;;;3.35;;
45488;SDS011;31236;55.026;61.042;2023-07-13T15:25:55;12.90;;;5.35;;
45488;SDS011;31236;55.026;61.042;2023-07-13T15:28:24;15.72;;;5.20;;
45488;SDS011;31236;55.026;61.042;2023-07-13T15:30:54;12.90;;;4.00;;
45488;SDS011;31236;55.026;61.042;2023-07-13T15:33:25;12.10;;;3.92;;
45488;SDS011;31236;55.026;61.042;2023-07-13T15:35:56;16.93;;;3.60;;
45488;SDS011;31236;55.026;61.042;2023-07-13T15:46:58;25.55;;;3.62;;
45488;SDS011;31236;55.026;61.042;2023-07-13T15:49:29;30.15;;;4.97;;
45488;SDS011;31236;55.026;61.042;2023-07-13T15:52:00;24.60;;;3.45;;
45488;SDS011;31236;55.026;61.042;2023-07-13T15:54:30;15.05;;;4.42;;
45488;SDS011;31236;55.026;61.042;2023-07-13T15:57:00;25.57;;;4.70;;
45488;SDS011;31236;55.026;61.042;2023-07-13T15:59:32;28.75;;;5.95;;
45488;SDS011;31236;55.026;61.042;2023-07-13T16:02:08;28.80;;;6.80;;
45488;SDS011;31236;55.026;61.042;2023-07-13T16:04:34;26.15;;;5.60;;
45488;SDS011;31236;55.026;61.042;2023-07-13T16:07:03;33.73;;;6.60;;
45488;SDS011;31236;55.026;61.042;2023-07-13T16:09:33;26.65;;;6.33;;
45488;SDS011;31236;55.026;61.042;2023-07-13T16:12:04;25.27;;;5.80;;
45488;SDS011;31236;55.026;61.042;2023-07-13T16:14:53;25.02;;;4.55;;
45488;SDS011;31236;55.026;61.042;2023-07-13T16:17:23;32.83;;;5.87;;
45488;SDS011;31236;55.026;61.042;2023-07-13T16:19:54;20.55;;;4.95;;
45488;SDS011;31236;55.026;61.042;2023-07-13T16:22:25;11.80;;;3.67;;
45488;SDS011;31236;55.026;61.042;2023-07-13T16:24:55;15.78;;;5.08;;
45488;SDS011;31236;55.026;61.042;2023-07-13T16:27:26;23.30;;;4.83;;
45488;SDS011;31236;55.026;61.042;2023-07-13T16:29:56;19.23;;;4.25;;
45488;SDS011;31236;55.026;61.042;2023-07-13T16:32:25;24.07;;;6.22;;
45488;SDS011;31236;55.026;61.042;2023-07-13T16:34:55;23.07;;;5.70;;
45488;SDS011;31236;55.026;61.042;2023-07-13T16:37:26;24.82;;;6.30;;
45488;SDS011;31236;55.026;61.042;2023-07-13T16:39:58;26.07;;;6.78;;
45488;SDS011;31236;55.026;61.042;2023-07-13T16:42:30;23.40;;;5.85;;
45488;SDS011;31236;55.026;61.042;2023-07-13T16:45:00;17.25;;;4.78;;
45488;SDS011;31236;55.026;61.042;2023-07-13T16:47:30;20.97;;;4.53;;
45488;SDS011;31236;55.026;61.042;2023-07-13T16:50:00;13.90;;;3.80;;
45488;SDS011;31236;55.026;61.042;2023-07-13T16:52:30;12.35;;;4.20;;
45488;SDS011;31236;55.026;61.042;2023-07-13T16:55:00;18.25;;;4.75;;
45488;SDS011;31236;55.026;61.042;2023-07-13T16:57:31;12.05;;;5.58;;
45488;SDS011;31236;55.026;61.042;2023-07-13T17:03:15;19.95;;;3.92;;
45488;SDS011;31236;55.026;61.042;2023-07-13T17:05:46;18.65;;;3.50;;
45488;SDS011;31236;55.026;61.042;2023-07-13T17:08:20;17.23;;;4.33;;
45488;SDS011;31236;55.026;61.042;2023-07-13T17:10:54;20.45;;;4.95;;
45488;SDS011;31236;55.026;61.042;2023-07-13T17:15:55;35.40;;;5.90;;
45488;SDS011;31236;55.026;61.042;2023-07-13T17:18:27;44.88;;;7.67;;
45488;SDS011;31236;55.026;61.042;2023-07-13T17:21:00;42.43;;;7.45;;
45488;SDS011;31236;55.026;61.042;2023-07-13T17:23:32;45.03;;;8.03;;